Time;durP1;ratioP1;P1;durP2;ratioP2;P2;SDS_P1;SDS_P2;PMS_P1;PMS_P2;Temp;Humidity;BMP_temperature;BMP_pressure;BME280_temperature;BME280_humidity;BME280_pressure;Samples;Min_cycle;Max_cycle;Signal;HPM_P1;HPM_P2
2023/08/23 00:02:24;;;;;;;0.68;0.68;;;;;;;20.63;79.63;101186.31;4986907;28;20038;-65
2023/08/23 00:04:50;;;;;;;0.90;0.63;;;;;;;20.64;79.58;101193.34;4974352;28;20114;-70
2023/08/23 00:07:16;;;;;;;0.85;0.55;;;;;;;20.63;79.92;101191.03;4977743;28;20490;-68
2023/08/23 00:09:41;;;;;;;1.80;0.90;;;;;;;20.57;79.68;101182.50;4988214;28;20044;-65
2023/08/23 00:12:07;;;;;;;4.10;0.85;;;;;;;20.52;80.72;101182.13;4981112;28;20046;-65
2023/08/23 00:14:33;;;;;;;1.42;1.00;;;;;;;20.52;80.43;101182.94;4963408;28;20034;-65
2023/08/23 00:16:58;;;;;;;1.17;0.75;;;;;;;20.52;80.56;101180.19;4990996;28;20056;-65
2023/08/23 00:19:24;;;;;;;1.38;0.80;;;;;;;20.47;80.86;101185.34;5051815;28;20032;-65
2023/08/23 00:21:49;;;;;;;0.63;0.43;;;;;;;20.46;80.84;101192.78;5047610;28;20493;-68
2023/08/23 00:24:14;;;;;;;1.15;0.80;;;;;;;20.44;80.86;101192.41;5051093;28;20477;-67
2023/08/23 00:26:40;;;;;;;1.73;1.30;;;;;;;20.40;80.99;101182.69;5052827;28;20059;-65
2023/08/23 00:29:05;;;;;;;1.73;0.70;;;;;;;20.35;81.51;101185.88;5040420;28;20033;-70
2023/08/23 00:31:31;;;;;;;0.95;0.80;;;;;;;20.35;81.34;101183.13;5027927;28;20059;-65
2023/08/23 00:33:56;;;;;;;1.90;1.02;;;;;;;20.25;81.52;101178.53;5047100;28;20033;-66
2023/08/23 00:36:22;;;;;;;1.05;0.82;;;;;;;20.22;82.33;101182.09;5034067;28;20043;-64
2023/08/23 00:38:48;;;;;;;1.08;0.82;;;;;;;20.17;82.26;101179.78;5012226;28;20132;-65
2023/08/23 00:41:14;;;;;;;1.25;0.80;;;;;;;20.14;82.68;101180.59;5050622;28;20124;-65
2023/08/23 00:43:39;;;;;;;1.55;0.90;;;;;;;20.14;82.75;101180.59;5050811;28;20553;-65
2023/08/23 00:46:06;;;;;;;0.80;0.73;;;;;;;20.20;82.55;101182.50;5011465;28;20124;-67
2023/08/23 00:48:32;;;;;;;2.10;0.80;;;;;;;20.18;82.52;101175.84;5032018;28;20128;-66
2023/08/23 00:50:58;;;;;;;0.90;0.70;;;;;;;20.15;82.46;101182.91;5046506;28;20041;-65
2023/08/23 00:53:24;;;;;;;1.00;0.70;;;;;;;20.13;82.71;101174.34;5038426;28;20044;-64
2023/08/23 00:55:49;;;;;;;0.70;0.70;;;;;;;20.04;83.09;101182.25;5042560;28;20509;-66
2023/08/23 00:58:18;;;;;;;0.85;0.57;;;;;;;20.05;83.10;101191.25;5051732;28;20021;-64
2023/08/23 01:00:44;;;;;;;3.35;0.77;;;;;;;19.96;83.31;101194.44;5011961;28;20414;-66
2023/08/23 01:03:10;;;;;;;0.93;0.70;;;;;;;19.82;84.65;101191.84;5042766;28;20044;-71
2023/08/23 01:06:05;;;;;;;1.45;0.80;;;;;;;19.79;85.22;101195.38;5023445;28;20037;-64
2023/08/23 01:08:49;;;;;;;1.55;0.65;;;;;;;19.91;85.07;101191.38;5049414;28;20033;-64
2023/08/23 01:11:46;;;;;;;1.85;0.63;;;;;;;19.92;84.70;101185.50;5033936;28;20044;-65
2023/08/23 01:14:22;;;;;;;1.27;0.40;;;;;;;19.92;84.85;101177.28;5031809;28;20025;-64
2023/08/23 01:16:49;;;;;;;1.08;0.60;;;;;;;20.06;84.51;101185.34;5033349;28;20033;-63
2023/08/23 01:19:42;;;;;;;1.15;0.75;;;;;;;20.03;84.23;101179.94;5033285;28;20025;-63
2023/08/23 01:22:10;;;;;;;2.40;0.98;;;;;;;20.01;84.20;101185.03;5044507;28;20044;-64
2023/08/23 01:24:56;;;;;;;3.03;0.90;;;;;;;20.01;84.11;101191.28;5009926;28;20091;-64
2023/08/23 01:27:22;;;;;;;0.50;0.50;;;;;;;19.96;84.09;101193.66;4955475;28;20042;-64
2023/08/23 01:29:48;;;;;;;1.08;0.70;;;;;;;19.92;84.37;101184.72;4950667;28;20062;-65
2023/08/23 01:32:25;;;;;;;3.78;1.80;;;;;;;19.95;84.17;101183.91;4954287;28;20273;-64
2023/08/23 01:35:05;;;;;;;1.30;0.98;;;;;;;19.93;84.46;101178.06;4964690;28;20058;-66
2023/08/23 01:37:52;;;;;;;0.90;0.85;;;;;;;19.86;84.91;101172.69;4973693;28;20030;-66
2023/08/23 01:40:18;;;;;;;2.15;0.85;;;;;;;19.75;85.59;101173.53;4948990;29;20559;-68
2023/08/23 01:42:46;;;;;;;1.40;0.98;;;;;;;19.68;85.49;101164.63;4947568;29;20090;-72
2023/08/23 01:45:11;;;;;;;1.50;0.90;;;;;;;19.64;85.89;101167.41;4944401;29;20051;-65
2023/08/23 01:47:37;;;;;;;1.45;0.80;;;;;;;19.66;86.02;101165.03;4939343;29;20110;-67
2023/08/23 01:50:03;;;;;;;1.30;0.93;;;;;;;19.66;85.78;101158.78;4940628;28;20123;-64
2023/08/23 01:52:31;;;;;;;2.00;1.00;;;;;;;19.53;86.06;101153.03;4927832;29;20043;-65
2023/08/23 01:54:57;;;;;;;1.30;0.70;;;;;;;19.58;86.08;101155.34;4945587;29;20031;-66
2023/08/23 01:57:22;;;;;;;1.30;0.85;;;;;;;19.62;85.48;101150.63;4945547;29;20184;-64
2023/08/23 01:59:52;;;;;;;2.97;1.10;;;;;;;19.57;85.45;101159.25;4930372;29;20127;-64
2023/08/23 02:02:18;;;;;;;1.17;0.75;;;;;;;19.54;85.54;101165.53;4931472;29;20067;-64
2023/08/23 02:04:43;;;;;;;0.73;0.73;;;;;;;19.54;85.80;101160.06;4955412;28;20078;-67
2023/08/23 02:07:09;;;;;;;1.58;1.10;;;;;;;19.45;86.03;101158.97;4990955;28;20117;-64
2023/08/23 02:09:34;;;;;;;2.15;1.15;;;;;;;19.47;85.90;101157.38;4978223;28;20070;-64
2023/08/23 02:12:00;;;;;;;1.08;0.40;;;;;;;19.47;85.86;101162.84;4989552;28;20469;-66
2023/08/23 02:14:25;;;;;;;1.15;0.65;;;;;;;19.52;85.43;101158.91;4979752;28;20034;-64
2023/08/23 02:16:51;;;;;;;1.73;0.93;;;;;;;19.50;85.57;101164.78;5002826;28;20051;-66
2023/08/23 02:19:16;;;;;;;10.43;1.00;;;;;;;19.48;85.49;101167.13;5044245;28;20025;-65
2023/08/23 02:21:42;;;;;;;2.60;1.10;;;;;;;19.34;85.80;101169.97;5042197;28;20041;-66
2023/08/23 02:24:07;;;;;;;2.28;0.80;;;;;;;19.16;87.17;101169.28;5045543;28;20045;-65
2023/08/23 02:26:35;;;;;;;1.83;1.00;;;;;;;19.12;87.62;101168.53;5050101;28;20396;-66
2023/08/23 02:29:01;;;;;;;2.13;1.30;;;;;;;19.07;88.30;101163.47;5023750;28;20039;-67
2023/08/23 02:31:26;;;;;;;1.80;0.90;;;;;;;19.13;87.96;101156.41;5046878;28;20025;-66
2023/08/23 02:33:53;;;;;;;1.27;0.90;;;;;;;19.19;87.55;101149.38;5031818;28;20115;-64
2023/08/23 02:36:19;;;;;;;1.50;0.88;;;;;;;19.18;87.59;101152.50;5039024;28;20475;-64
2023/08/23 02:38:44;;;;;;;2.03;1.33;;;;;;;19.15;87.26;101154.06;5022907;28;20074;-67
2023/08/23 02:41:10;;;;;;;1.42;1.00;;;;;;;19.06;87.62;101153.75;5026622;28;20432;-64
2023/08/23 02:43:36;;;;;;;3.88;1.20;;;;;;;19.06;87.58;101148.28;5037524;28;20120;-65
2023/08/23 02:46:02;;;;;;;2.72;1.10;;;;;;;19.08;87.90;101148.66;5044236;28;20134;-64
2023/08/23 02:48:29;;;;;;;5.88;1.05;;;;;;;19.15;87.75;101147.81;5027719;28;20033;-64
2023/08/23 02:50:54;;;;;;;1.42;0.82;;;;;;;19.19;87.63;101143.91;5041194;28;20095;-66
2023/08/23 02:53:20;;;;;;;2.45;0.98;;;;;;;19.18;86.93;101141.56;5039267;28;20041;-64
2023/08/23 02:55:45;;;;;;;3.15;0.90;;;;;;;19.12;87.07;101152.16;5032334;28;20127;-65
2023/08/23 02:58:11;;;;;;;0.93;0.82;;;;;;;19.00;87.46;101151.81;5032851;28;20021;-67
2023/08/23 03:00:36;;;;;;;1.92;0.80;;;;;;;18.96;88.08;101149.13;5028976;28;20048;-63
2023/08/23 03:03:02;;;;;;;1.40;0.90;;;;;;;18.99;88.12;101155.75;5004866;28;20417;-72
2023/08/23 03:05:27;;;;;;;2.00;1.25;;;;;;;19.02;87.75;101150.25;5032597;28;20045;-68
2023/08/23 03:07:53;;;;;;;5.18;1.05;;;;;;;18.96;87.84;101153.81;5051966;28;20052;-63
2023/08/23 03:10:18;;;;;;;1.88;1.17;;;;;;;19.00;87.88;101152.59;5041591;28;20052;-69
2023/08/23 03:12:47;;;;;;;1.83;1.13;;;;;;;19.01;87.82;101156.13;5048502;28;20083;-66
2023/08/23 03:15:13;;;;;;;1.95;1.08;;;;;;;19.02;88.20;101152.19;5045213;28;20040;-66
2023/08/23 03:18:00;;;;;;;1.75;0.95;;;;;;;18.96;88.85;101156.53;5026282;28;20090;-66
2023/08/23 03:20:25;;;;;;;2.90;1.15;;;;;;;19.01;88.92;101159.63;4932352;29;20517;-64
2023/08/23 03:22:51;;;;;;;3.22;1.27;;;;;;;18.87;90.34;101157.75;4945278;28;20070;-64
2023/08/23 03:25:16;;;;;;;1.27;1.15;;;;;;;19.01;90.21;101161.59;4935969;29;20424;-65
2023/08/23 03:27:42;;;;;;;1.38;0.82;;;;;;;19.10;89.74;101157.22;4932250;29;20036;-64
2023/08/23 03:30:08;;;;;;;1.70;1.20;;;;;;;19.14;89.83;101151.75;4935986;28;20656;-65
2023/08/23 03:32:34;;;;;;;2.10;0.95;;;;;;;19.19;89.82;101152.09;4944783;28;20040;-66
2023/08/23 03:34:59;;;;;;;2.83;1.52;;;;;;;19.18;89.92;101153.25;4934091;29;20028;-65
2023/08/23 03:37:25;;;;;;;2.83;1.45;;;;;;;19.21;90.31;101154.41;4933427;29;21243;-66
2023/08/23 03:40:11;;;;;;;3.78;1.70;;;;;;;19.25;90.81;101163.38;4936016;29;20039;-68
2023/08/23 03:42:36;;;;;;;2.28;1.50;;;;;;;19.32;91.31;101163.31;4868743;29;20041;-64
2023/08/23 03:45:02;;;;;;;2.97;1.48;;;;;;;19.35;91.06;101155.13;4853886;29;20056;-64
2023/08/23 03:47:27;;;;;;;3.10;1.85;;;;;;;19.35;91.56;101163.34;4861792;29;20037;-65
2023/08/23 03:49:52;;;;;;;4.10;2.05;;;;;;;19.36;92.12;101151.22;4868026;29;20070;-64
2023/08/23 03:52:19;;;;;;;4.18;1.60;;;;;;;19.39;92.62;101161.34;4847697;29;20121;-74
2023/08/23 03:54:45;;;;;;;3.50;1.73;;;;;;;19.43;92.84;101164.06;4862664;29;20046;-65
2023/08/23 03:57:11;;;;;;;2.78;1.65;;;;;;;19.50;92.96;101156.56;4900495;29;20618;-65
2023/08/23 03:59:36;;;;;;;3.13;1.75;;;;;;;19.54;93.08;101153.81;4950475;28;20043;-65
2023/08/23 04:02:01;;;;;;;3.55;1.55;;;;;;;19.59;92.67;101165.09;4943757;28;20042;-65
2023/08/23 04:04:27;;;;;;;2.70;1.90;;;;;;;19.65;93.26;101155.28;4931734;29;20063;-66
2023/08/23 04:06:52;;;;;;;3.55;2.05;;;;;;;19.72;92.65;101165.38;4948302;29;20092;-66
2023/08/23 04:09:18;;;;;;;3.92;1.90;;;;;;;19.67;92.45;101172.03;4948821;29;20050;-66
2023/08/23 04:11:43;;;;;;;3.08;2.05;;;;;;;19.65;92.26;101171.66;4949188;29;20684;-65
2023/08/23 04:14:09;;;;;;;4.25;2.35;;;;;;;19.62;92.01;101175.22;4944184;28;20042;-65
2023/08/23 04:16:35;;;;;;;6.25;3.03;;;;;;;19.54;92.34;101172.94;4933376;29;20119;-65
2023/08/23 04:19:00;;;;;;;5.50;2.10;;;;;;;19.46;92.75;101172.22;4955381;28;20041;-65
2023/08/23 04:21:26;;;;;;;4.00;1.92;;;;;;;19.44;92.60;101173.78;5030029;28;20034;-65
2023/08/23 04:23:52;;;;;;;2.85;1.70;;;;;;;19.43;92.78;101170.31;5037484;28;20045;-65
2023/08/23 04:28:53;;;;;;;8.10;2.70;;;;;;;19.40;92.72;101173.81;5042234;28;20075;-66
2023/08/23 04:31:19;;;;;;;6.50;1.92;;;;;;;19.41;92.37;101180.84;5023732;28;20025;-66
2023/08/23 04:33:48;;;;;;;6.22;2.35;;;;;;;19.43;92.30;101177.72;5038019;28;20029;-67
2023/08/23 04:36:15;;;;;;;3.40;1.95;;;;;;;19.43;92.46;101181.22;5027640;28;20021;-66
2023/08/23 04:38:40;;;;;;;3.38;1.90;;;;;;;19.47;92.75;101173.75;5024111;28;20476;-66
2023/08/23 04:41:06;;;;;;;5.63;2.22;;;;;;;19.42;92.80;101174.19;5010127;28;20087;-66
2023/08/23 04:43:33;;;;;;;6.25;1.77;;;;;;;19.40;93.11;101179.28;5030404;28;20021;-66
2023/08/23 04:46:04;;;;;;;3.80;2.22;;;;;;;19.44;93.39;101176.53;5022703;28;20029;-65
2023/08/23 04:48:31;;;;;;;5.15;2.92;;;;;;;19.48;93.39;101178.06;5029561;28;20087;-66
2023/08/23 04:50:58;;;;;;;6.32;2.15;;;;;;;19.51;93.73;101177.25;5024735;28;20033;-66
2023/08/23 04:53:24;;;;;;;5.05;2.40;;;;;;;19.57;93.45;101175.63;5032180;28;20060;-65
2023/08/23 04:55:50;;;;;;;5.35;2.38;;;;;;;19.59;93.83;101177.97;5020280;28;20071;-65
2023/08/23 04:58:16;;;;;;;6.93;2.65;;;;;;;19.60;94.53;101180.31;5030773;28;20033;-66
2023/08/23 05:00:45;;;;;;;6.75;2.60;;;;;;;19.71;94.72;101186.47;5006741;28;20029;-66
2023/08/23 05:03:11;;;;;;;4.00;2.28;;;;;;;19.86;94.68;101181.63;5023460;28;20029;-66
2023/08/23 05:05:37;;;;;;;3.72;2.25;;;;;;;19.95;94.50;101179.22;5030021;28;20021;-66
2023/08/23 05:08:04;;;;;;;6.32;2.22;;;;;;;20.02;94.20;101183.84;5028585;28;20040;-65
2023/08/23 05:10:29;;;;;;;4.10;2.13;;;;;;;20.01;94.46;101188.53;5026116;28;20719;-65
2023/08/23 05:12:58;;;;;;;3.65;1.77;;;;;;;19.99;94.91;101184.66;5015679;28;20029;-65
2023/08/23 05:15:24;;;;;;;6.45;2.25;;;;;;;20.03;94.75;101191.66;5020713;28;20051;-65
2023/08/23 05:17:49;;;;;;;4.95;1.98;;;;;;;20.06;94.72;101185.34;5027066;28;20739;-65
2023/08/23 05:20:15;;;;;;;4.28;2.45;;;;;;;20.10;94.74;101188.06;5022957;28;20392;-65
2023/08/23 05:22:41;;;;;;;5.90;2.65;;;;;;;20.09;94.85;101187.28;5014352;28;20124;-65
2023/08/23 05:25:07;;;;;;;3.22;1.85;;;;;;;20.11;94.82;101192.34;5027673;28;20036;-65
2023/08/23 05:27:32;;;;;;;5.55;2.05;;;;;;;20.11;94.68;101203.31;5016067;28;20048;-65
2023/08/23 05:29:59;;;;;;;4.38;2.03;;;;;;;20.12;94.70;101194.69;5036692;28;20040;-65
2023/08/23 05:32:25;;;;;;;6.20;2.42;;;;;;;20.14;95.10;101197.78;5014282;28;20436;-65
2023/08/23 05:34:51;;;;;;;3.92;1.70;;;;;;;20.09;95.51;101200.94;5023749;28;20043;-65
2023/08/23 05:37:19;;;;;;;3.70;1.63;;;;;;;20.04;96.07;101192.41;5017470;28;20526;-65
2023/08/23 05:39:47;;;;;;;3.42;2.10;;;;;;;20.14;96.25;101191.53;5021756;28;20380;-65
2023/08/23 05:42:13;;;;;;;5.32;2.17;;;;;;;20.15;96.15;101182.16;5037103;28;20566;-65
2023/08/23 05:44:38;;;;;;;4.00;2.28;;;;;;;20.21;96.27;101186.03;5042281;28;20029;-65
2023/08/23 05:47:04;;;;;;;4.07;2.30;;;;;;;20.29;96.07;101190.22;5026334;28;20033;-65
2023/08/23 05:49:29;;;;;;;2.70;1.75;;;;;;;20.39;96.05;101195.59;5019903;28;20051;-65
2023/08/23 05:51:55;;;;;;;4.63;1.85;;;;;;;20.47;96.08;101188.88;5017565;28;20115;-65
2023/08/23 05:54:21;;;;;;;5.50;2.28;;;;;;;20.57;95.62;101198.13;5037292;28;20055;-65
2023/08/23 05:56:46;;;;;;;3.72;1.65;;;;;;;20.58;95.79;101194.97;5036710;28;20117;-65
2023/08/23 05:59:11;;;;;;;3.22;2.08;;;;;;;20.65;95.34;101199.59;5040629;28;20124;-65
2023/08/23 06:01:38;;;;;;;3.20;1.88;;;;;;;20.65;95.96;101203.09;5043131;28;20132;-65
2023/08/23 06:04:03;;;;;;;2.67;1.85;;;;;;;20.73;95.52;101208.50;5010692;28;20653;-65
2023/08/23 06:06:29;;;;;;;2.58;1.75;;;;;;;20.83;95.41;101205.63;5043404;28;20033;-65
2023/08/23 06:08:54;;;;;;;4.43;2.17;;;;;;;20.87;95.40;101216.53;5046384;28;20479;-65
2023/08/23 06:11:20;;;;;;;14.38;2.17;;;;;;;20.89;95.00;101214.16;5022165;28;20060;-65
2023/08/23 06:13:46;;;;;;;6.20;2.70;;;;;;;20.96;95.00;101214.06;5034428;28;20040;-64
2023/08/23 06:16:11;;;;;;;4.78;2.08;;;;;;;21.04;94.99;101212.81;5039402;28;20031;-64
2023/08/23 06:18:37;;;;;;;6.05;2.58;;;;;;;21.15;94.67;101202.50;5041145;28;20642;-64
2023/08/23 06:21:02;;;;;;;8.18;2.25;;;;;;;21.27;94.37;101208.16;5041650;28;20029;-65
2023/08/23 06:23:28;;;;;;;5.43;1.88;;;;;;;21.37;94.85;101212.72;5040119;28;20486;-64
2023/08/23 06:25:58;;;;;;;4.78;2.03;;;;;;;21.52;94.26;101211.31;5039669;28;20093;-65
2023/08/23 06:28:23;;;;;;;3.25;1.58;;;;;;;21.68;93.59;101215.41;5033022;28;20143;-65
2023/08/23 06:30:49;;;;;;;6.97;2.25;;;;;;;21.85;93.11;101220.63;5022513;28;20438;-65
2023/08/23 06:33:14;;;;;;;7.40;2.20;;;;;;;21.95;91.99;101224.38;5039455;28;20099;-65
2023/08/23 06:35:40;;;;;;;3.50;1.95;;;;;;;22.04;91.80;101219.91;5034755;28;20647;-65
2023/08/23 06:38:05;;;;;;;4.47;1.88;;;;;;;22.16;91.29;101219.28;5038249;28;20607;-65
2023/08/23 06:40:31;;;;;;;4.65;2.58;;;;;;;22.33;90.40;101217.41;5027360;28;20025;-65
2023/08/23 06:42:56;;;;;;;4.45;2.13;;;;;;;22.44;90.27;101217.97;5044959;28;20041;-65
2023/08/23 06:45:22;;;;;;;3.50;2.30;;;;;;;22.71;88.87;101224.13;5021739;28;20109;-65
2023/08/23 06:47:48;;;;;;;4.35;2.10;;;;;;;22.74;87.55;101220.56;5046971;28;20013;-65
2023/08/23 06:50:34;;;;;;;3.20;1.60;;;;;;;22.68;87.16;101229.72;5041492;28;20469;-65
2023/08/23 06:53:00;;;;;;;3.65;2.10;;;;;;;22.72;86.59;101220.19;4930563;29;20055;-65
2023/08/23 06:55:25;;;;;;;3.08;1.80;;;;;;;22.69;86.25;101228.50;4948509;29;20042;-65
2023/08/23 06:57:51;;;;;;;4.80;2.22;;;;;;;22.79;86.20;101224.75;4947650;29;20122;-65
2023/08/23 07:00:17;;;;;;;3.08;1.83;;;;;;;22.93;85.73;101228.00;4946934;29;20054;-65
2023/08/23 07:02:42;;;;;;;2.20;1.60;;;;;;;22.90;84.65;101233.56;4946891;29;20037;-65
2023/08/23 07:05:08;;;;;;;2.63;1.50;;;;;;;22.86;84.58;101222.63;4947058;29;20047;-65
2023/08/23 07:07:33;;;;;;;2.13;1.63;;;;;;;22.89;84.51;101226.50;4947679;29;20098;-65
2023/08/23 07:09:59;;;;;;;3.25;1.35;;;;;;;23.04;84.64;101227.75;4946203;29;20047;-65
2023/08/23 07:12:24;;;;;;;5.03;1.80;;;;;;;23.16;83.56;101224.34;4928319;29;20042;-65
2023/08/23 07:14:50;;;;;;;4.25;1.92;;;;;;;23.19;83.74;101215.25;4930663;29;20097;-65
2023/08/23 07:17:16;;;;;;;2.85;1.60;;;;;;;23.21;83.58;101230.13;4944542;29;20127;-65
2023/08/23 07:19:41;;;;;;;2.35;1.33;;;;;;;23.22;82.92;101230.91;4949282;29;20083;-65
2023/08/23 07:22:07;;;;;;;2.75;1.40;;;;;;;23.16;83.09;101236.13;4947010;29;20031;-65
2023/08/23 07:24:32;;;;;;;2.67;1.35;;;;;;;23.14;82.10;101227.53;4950756;29;20043;-65
2023/08/23 07:26:58;;;;;;;1.13;0.98;;;;;;;23.01;82.92;101229.41;4943584;28;20434;-65
2023/08/23 07:29:23;;;;;;;1.40;1.30;;;;;;;23.12;83.36;101229.16;4968253;28;20510;-65
2023/08/23 07:31:49;;;;;;;1.95;1.30;;;;;;;23.25;83.59;101232.78;5030933;28;20040;-65
2023/08/23 07:34:14;;;;;;;2.50;1.40;;;;;;;23.34;82.79;101224.00;5046556;28;20033;-65
2023/08/23 07:36:39;;;;;;;1.60;1.00;;;;;;;23.28;82.88;101235.47;5034315;28;20040;-65
2023/08/23 07:39:05;;;;;;;2.40;1.13;;;;;;;23.40;82.45;101233.28;5044294;28;20031;-65
2023/08/23 07:41:30;;;;;;;2.00;1.27;;;;;;;23.38;81.72;101235.69;5030461;28;20029;-65
2023/08/23 07:43:56;;;;;;;1.73;1.15;;;;;;;23.37;81.12;101250.63;5043444;28;20118;-65
2023/08/23 07:46:24;;;;;;;4.10;1.38;;;;;;;23.47;80.89;101244.91;5025376;28;20046;-65
2023/08/23 07:48:49;;;;;;;1.65;1.00;;;;;;;23.62;81.02;101246.09;5026861;28;20029;-65
2023/08/23 07:51:15;;;;;;;1.05;0.80;;;;;;;23.69;80.19;101245.16;5045844;28;20403;-65
2023/08/23 07:53:43;;;;;;;1.73;1.13;;;;;;;23.84;79.10;101246.38;5043387;28;20021;-65
2023/08/23 07:56:11;;;;;;;1.20;0.98;;;;;;;24.15;78.94;101250.31;5029327;28;20028;-65
2023/08/23 07:58:38;;;;;;;2.08;0.90;;;;;;;24.46;77.27;101245.94;5029566;28;20117;-65
2023/08/23 08:01:05;;;;;;;1.23;0.95;;;;;;;24.73;75.57;101251.91;5045362;28;20041;-65
2023/08/23 08:03:30;;;;;;;1.25;0.85;;;;;;;24.93;73.89;101249.75;5028563;28;20052;-65
2023/08/23 08:05:56;;;;;;;2.30;1.13;;;;;;;25.13;73.26;101254.28;5048629;28;20072;-65
2023/08/23 08:08:22;;;;;;;1.95;0.90;;;;;;;25.11;71.88;101251.97;5024807;28;20033;-65
2023/08/23 08:10:49;;;;;;;0.70;0.70;;;;;;;25.17;72.00;101249.44;5032106;28;20021;-65
2023/08/23 08:13:14;;;;;;;1.20;0.70;;;;;;;25.12;71.91;101263.78;5039161;28;20037;-68
2023/08/23 08:15:40;;;;;;;1.95;0.88;;;;;;;25.08;71.62;101257.59;5038998;28;20111;-68
2023/08/23 08:18:05;;;;;;;1.08;1.00;;;;;;;24.89;71.46;101271.13;5036563;28;20036;-69
2023/08/23 08:20:30;;;;;;;1.45;1.08;;;;;;;24.82;71.55;101268.56;5021314;28;20037;-68
2023/08/23 08:22:56;;;;;;;2.92;0.90;;;;;;;24.78;71.96;101267.91;5037428;28;20057;-68
2023/08/23 08:25:22;;;;;;;1.20;0.85;;;;;;;24.83;71.46;101274.88;5029739;28;20024;-69
2023/08/23 08:27:47;;;;;;;6.75;1.02;;;;;;;25.02;71.55;101273.91;5013316;28;20450;-68
2023/08/23 08:30:13;;;;;;;1.15;1.05;;;;;;;25.28;70.35;101281.00;5032704;28;20047;-69
2023/08/23 08:32:58;;;;;;;1.90;1.13;;;;;;;25.71;68.06;101286.00;5044302;28;20056;-68
2023/08/23 08:35:24;;;;;;;0.85;0.60;;;;;;;26.01;65.63;101290.19;4944515;28;20074;-68
2023/08/23 08:37:49;;;;;;;0.80;0.55;;;;;;;26.22;65.34;101287.50;4941938;28;20994;-69
2023/08/23 08:40:20;;;;;;;2.22;0.80;;;;;;;26.46;63.61;101288.63;4928065;29;20046;-69
2023/08/23 08:42:46;;;;;;;3.05;0.82;;;;;;;26.68;62.73;101285.88;4943721;28;20514;-67
2023/08/23 08:45:11;;;;;;;0.60;0.50;;;;;;;26.86;60.96;101294.34;4944791;29;20058;-69
2023/08/23 08:47:37;;;;;;;1.45;0.88;;;;;;;26.99;60.19;101291.50;4949346;29;20031;-69
2023/08/23 08:50:03;;;;;;;4.88;1.13;;;;;;;27.11;61.11;101290.66;4946587;29;20314;-68
2023/08/23 08:52:28;;;;;;;1.77;0.85;;;;;;;27.17;59.94;101297.16;4944529;29;20105;-68
2023/08/23 08:54:57;;;;;;;0.82;0.50;;;;;;;27.24;59.78;101302.41;4946109;29;20031;-68
2023/08/23 08:57:25;;;;;;;0.73;0.50;;;;;;;27.05;59.19;101298.78;4948652;29;20038;-69
2023/08/23 08:59:52;;;;;;;1.95;0.50;;;;;;;26.93;60.68;101296.06;4945833;28;20039;-68
2023/08/23 09:02:18;;;;;;;1.20;0.80;;;;;;;26.97;61.74;101302.25;4942654;28;20201;-68
2023/08/23 09:04:47;;;;;;;0.52;0.52;;;;;;;27.05;60.85;101298.78;4933170;29;20074;-70
2023/08/23 09:07:14;;;;;;;0.98;0.60;;;;;;;26.98;60.27;101292.72;4937338;28;20047;-69
2023/08/23 09:09:42;;;;;;;0.40;0.40;;;;;;;27.01;59.82;101281.53;4944930;28;20194;-68
2023/08/23 09:12:08;;;;;;;1.48;0.50;;;;;;;27.00;59.47;101282.78;4976504;28;20049;-69
2023/08/23 09:14:33;;;;;;;0.60;0.47;;;;;;;27.20;60.15;101293.47;5041778;28;20132;-68
2023/08/23 09:16:58;;;;;;;3.00;0.60;;;;;;;27.34;58.82;101295.72;5036204;28;20044;-68
2023/08/23 09:19:24;;;;;;;1.10;0.60;;;;;;;27.56;58.92;101288.88;5037732;28;20479;-68
2023/08/23 09:21:50;;;;;;;2.15;0.73;;;;;;;27.73;58.41;101296.94;5037673;28;20053;-68
2023/08/23 09:24:16;;;;;;;0.65;0.50;;;;;;;27.86;57.65;101301.16;5031560;28;20074;-69
2023/08/23 09:26:43;;;;;;;6.00;0.45;;;;;;;28.06;55.96;101311.84;5037139;28;20033;-69
2023/08/23 09:29:09;;;;;;;1.73;0.90;;;;;;;28.02;54.37;101297.38;5037460;28;20033;-68
2023/08/23 09:31:39;;;;;;;0.75;0.55;;;;;;;27.93;54.32;101306.41;5040159;28;20519;-68
2023/08/23 09:34:11;;;;;;;0.50;0.40;;;;;;;27.90;55.26;101299.00;5034648;28;22231;-68
2023/08/23 09:36:42;;;;;;;0.55;0.35;;;;;;;27.90;55.87;101307.31;5031539;28;20048;-68
2023/08/23 09:39:10;;;;;;;1.08;0.45;;;;;;;27.99;55.00;101307.34;5037837;28;20021;-68
2023/08/23 09:41:40;;;;;;;1.98;0.50;;;;;;;27.95;54.80;101300.44;5024737;28;20072;-69
2023/08/23 09:44:06;;;;;;;0.40;0.40;;;;;;;28.08;54.08;101295.53;5033546;28;20029;-69
2023/08/23 09:46:35;;;;;;;0.40;0.40;;;;;;;28.32;53.73;101311.09;5034410;28;20634;-69
2023/08/23 09:49:04;;;;;;;0.32;0.32;;;;;;;28.48;52.71;101298.94;5040979;28;20032;-69
2023/08/23 09:51:32;;;;;;;0.60;0.32;;;;;;;28.61;53.04;101294.03;5029253;28;20037;-69
2023/08/23 09:54:03;;;;;;;0.32;0.32;;;;;;;28.73;52.42;101289.56;5015698;28;20773;-69
2023/08/23 09:56:28;;;;;;;1.25;0.70;;;;;;;28.83;52.90;101285.53;5039384;28;20387;-69
2023/08/23 09:58:55;;;;;;;0.50;0.40;;;;;;;29.02;52.41;101292.59;5037064;28;20063;-69
2023/08/23 10:01:25;;;;;;;1.00;0.43;;;;;;;29.25;52.14;101291.94;5018548;28;20086;-69
2023/08/23 10:03:51;;;;;;;1.73;0.50;;;;;;;29.46;50.85;101290.97;5042488;28;20029;-68
2023/08/23 10:06:18;;;;;;;0.55;0.40;;;;;;;29.52;50.00;101285.53;5027367;28;20094;-69
2023/08/23 10:08:44;;;;;;;1.30;0.40;;;;;;;29.58;49.80;101286.44;5044068;28;20507;-69
2023/08/23 10:11:10;;;;;;;0.30;0.25;;;;;;;29.58;49.53;101281.63;5041021;28;20029;-69
2023/08/23 10:13:37;;;;;;;1.27;0.50;;;;;;;29.77;49.05;101287.91;5036228;28;20059;-69
2023/08/23 10:16:04;;;;;;;0.30;0.30;;;;;;;30.07;47.43;101293.13;5039409;28;20058;-67
2023/08/23 10:18:31;;;;;;;0.35;0.30;;;;;;;30.16;47.27;101287.47;5031731;28;20064;-69
2023/08/23 10:20:57;;;;;;;1.42;0.45;;;;;;;30.18;47.52;101284.22;5034772;28;20091;-69
2023/08/23 10:23:22;;;;;;;0.40;0.32;;;;;;;30.33;46.95;101273.97;5035756;28;20029;-69
2023/08/23 10:25:49;;;;;;;1.25;0.40;;;;;;;30.27;46.38;101281.41;5024966;28;20139;-70
2023/08/23 10:28:19;;;;;;;0.85;0.20;;;;;;;30.44;46.10;101276.97;5040538;22;20045;-65
2023/08/23 10:30:50;;;;;;;0.80;0.45;;;;;;;30.58;44.43;101281.00;5026377;28;20067;-65
2023/08/23 10:33:18;;;;;;;0.43;0.17;;;;;;;30.63;45.17;101269.97;5028982;28;20037;-65
2023/08/23 10:35:44;;;;;;;2.95;0.30;;;;;;;30.66;45.53;101271.03;5026426;28;20021;-65
2023/08/23 10:38:11;;;;;;;1.42;0.40;;;;;;;30.54;44.68;101264.50;5028187;28;20120;-65
2023/08/23 10:40:39;;;;;;;0.50;0.50;;;;;;;30.44;46.04;101267.84;5023665;28;20714;-65
2023/08/23 10:43:12;;;;;;;1.73;0.20;;;;;;;30.59;45.83;101266.63;5001168;28;20486;-65
2023/08/23 10:46:02;;;;;;;0.10;0.10;;;;;;;30.37;46.21;101260.66;5023808;28;20037;-65
2023/08/23 10:48:27;;;;;;;0.50;0.40;;;;;;;30.61;47.15;101261.34;5009745;28;20025;-65
2023/08/23 10:50:55;;;;;;;0.40;0.30;;;;;;;30.70;47.57;101258.47;5010543;28;20524;-65
2023/08/23 10:53:41;;;;;;;0.43;0.30;;;;;;;30.93;46.94;101268.00;5005589;28;20044;-65
2023/08/23 10:56:08;;;;;;;0.20;0.20;;;;;;;31.13;45.80;101258.97;4935569;28;20043;-65
2023/08/23 10:58:33;;;;;;;0.30;0.30;;;;;;;31.04;45.38;101246.69;4955969;28;20141;-65
2023/08/23 11:00:59;;;;;;;3.83;0.28;;;;;;;31.00;45.37;101242.56;4940936;28;20126;-66
2023/08/23 11:03:28;;;;;;;0.30;0.30;;;;;;;31.04;45.41;101243.13;4947513;28;20070;-65
2023/08/23 11:05:54;;;;;;;0.22;0.22;;;;;;;31.27;45.65;101258.94;4955008;28;20493;-65
2023/08/23 11:08:21;;;;;;;0.65;0.65;;;;;;;31.31;43.64;101248.38;4947765;28;20051;-66
2023/08/23 11:10:47;;;;;;;0.28;0.10;;;;;;;31.15;44.52;101251.66;4935566;28;20035;-65
2023/08/23 11:13:12;;;;;;;0.10;0.10;;;;;;;31.03;44.72;101249.94;4944265;28;20054;-65
2023/08/23 11:15:38;;;;;;;0.20;0.20;;;;;;;31.20;44.80;101253.00;4931602;29;20046;-65
2023/08/23 11:18:05;;;;;;;0.93;0.52;;;;;;;31.41;44.23;101246.25;4950901;29;20455;-65
2023/08/23 11:20:30;;;;;;;0.32;0.30;;;;;;;31.67;43.07;101249.91;4949656;28;20382;-65
2023/08/23 11:22:55;;;;;;;0.30;0.20;;;;;;;31.78;42.92;101247.31;4950391;28;20033;-66
2023/08/23 11:25:21;;;;;;;0.30;0.30;;;;;;;31.85;42.78;101249.66;4931853;29;20094;-66
2023/08/23 11:27:46;;;;;;;0.20;0.20;;;;;;;31.72;42.63;101250.03;4951332;28;20039;-66